Time;durP1;ratioP1;P1;durP2;ratioP2;P2;SDS_P1;SDS_P2;PMS_P1;PMS_P2;Temp;Humidity;BMP_temperature;BMP_pressure;BME280_temperature;BME280_humidity;BME280_pressure;Samples;Min_cycle;Max_cycle;Signal;HPM_P1;HPM_P2
2023/04/14 00:02:02;;;;;;;4.27;3.80;;;5.80;97.30;;;;;;5046439;28;20473;-65
2023/04/14 00:04:28;;;;;;;4.00;3.60;;;5.70;97.20;;;;;;5029528;28;20971;-66
2023/04/14 00:06:57;;;;;;;7.17;3.90;;;5.80;97.40;;;;;;5030559;28;20465;-66
2023/04/14 00:09:25;;;;;;;6.90;4.13;;;5.90;97.10;;;;;;5035299;28;20485;-66
2023/04/14 00:11:52;;;;;;;3.93;3.23;;;6.10;96.60;;;;;;5047644;28;20473;-66
2023/04/14 00:14:19;;;;;;;4.23;3.83;;;6.10;96.40;;;;;;5050197;28;20449;-66
2023/04/14 00:16:46;;;;;;;5.87;4.33;;;6.00;96.20;;;;;;5049779;28;20458;-67
2023/04/14 00:19:13;;;;;;;5.10;4.17;;;5.90;96.30;;;;;;5050416;28;20483;-66
2023/04/14 00:21:40;;;;;;;4.20;3.70;;;5.80;96.70;;;;;;5049994;28;20463;-66
2023/04/14 00:24:06;;;;;;;6.03;4.27;;;5.70;96.40;;;;;;5049301;28;21048;-66
2023/04/14 00:26:35;;;;;;;6.53;4.00;;;5.50;96.70;;;;;;5048379;28;20825;-67
2023/04/14 00:29:01;;;;;;;6.30;4.80;;;5.30;97.00;;;;;;5049969;28;20453;-66
2023/04/14 00:31:28;;;;;;;7.70;4.80;;;5.20;97.30;;;;;;5049971;28;20833;-67
2023/04/14 00:33:55;;;;;;;5.27;4.60;;;5.20;97.50;;;;;;5048750;28;20445;-66
2023/04/14 00:36:22;;;;;;;6.53;5.30;;;5.10;97.50;;;;;;5050112;28;20454;-66
2023/04/14 00:38:49;;;;;;;6.60;4.67;;;5.10;97.90;;;;;;5049373;28;20451;-66
2023/04/14 00:41:16;;;;;;;5.90;4.93;;;5.10;98.00;;;;;;5049536;28;20973;-66
2023/04/14 00:43:44;;;;;;;6.47;5.87;;;5.00;98.00;;;;;;5048117;28;20534;-66
2023/04/14 00:46:11;;;;;;;7.53;6.00;;;5.00;98.20;;;;;;5048492;28;20456;-66
2023/04/14 00:48:37;;;;;;;7.73;5.47;;;5.00;98.20;;;;;;5049396;28;20821;-66
2023/04/14 00:51:05;;;;;;;7.07;6.23;;;5.00;98.20;;;;;;5048503;28;20978;-66
2023/04/14 00:53:32;;;;;;;9.20;6.60;;;4.90;98.10;;;;;;5046611;28;20455;-67
2023/04/14 00:55:59;;;;;;;8.43;6.53;;;4.90;98.20;;;;;;5047158;28;20456;-67
2023/04/14 00:58:27;;;;;;;9.00;7.10;;;4.80;98.20;;;;;;5048550;28;20456;-67
2023/04/14 01:00:56;;;;;;;6.23;5.63;;;4.70;98.30;;;;;;5046016;28;20487;-67
2023/04/14 01:03:23;;;;;;;6.70;5.53;;;4.70;98.40;;;;;;5028757;28;20440;-68
2023/04/14 01:05:50;;;;;;;7.10;6.40;;;4.70;98.50;;;;;;5029373;28;20506;-68
2023/04/14 01:08:19;;;;;;;7.20;6.17;;;4.80;98.70;;;;;;5029415;28;20468;-68
2023/04/14 01:10:55;;;;;;;5.70;5.10;;;4.80;98.50;;;;;;5029745;28;20457;-68
2023/04/14 01:13:32;;;;;;;7.13;5.47;;;4.90;98.60;;;;;;5028996;28;20463;-68
2023/04/14 01:16:04;;;;;;;7.37;5.67;;;4.80;98.30;;;;;;5030247;28;20453;-68
2023/04/14 01:18:46;;;;;;;7.20;5.57;;;4.80;98.30;;;;;;5050384;28;20443;-66
2023/04/14 01:21:17;;;;;;;6.20;5.40;;;4.60;98.10;;;;;;5050377;28;20489;-68
2023/04/14 01:24:04;;;;;;;6.03;5.43;;;4.60;98.40;;;;;;5049812;28;20442;-67
2023/04/14 01:26:33;;;;;;;8.27;5.97;;;4.60;98.50;;;;;;5050657;28;20451;-67
2023/04/14 01:29:30;;;;;;;6.00;5.40;;;4.70;98.50;;;;;;5050210;28;20459;-68
2023/04/14 01:32:04;;;;;;;7.27;5.60;;;4.60;98.20;;;;;;5050534;28;20459;-66
2023/04/14 01:34:36;;;;;;;7.30;6.60;;;4.50;98.20;;;;;;5034790;28;20445;-68
2023/04/14 01:37:06;;;;;;;8.40;6.10;;;4.60;98.60;;;;;;5030486;28;20873;-68
2023/04/14 01:39:37;;;;;;;7.50;6.70;;;4.50;98.10;;;;;;5030084;28;20483;-68
2023/04/14 01:42:07;;;;;;;9.30;7.40;;;4.30;98.00;;;;;;5029981;28;20491;-67
2023/04/14 01:44:35;;;;;;;7.33;6.40;;;4.20;98.30;;;;;;5030000;28;20976;-68
2023/04/14 01:47:07;;;;;;;7.87;5.90;;;4.20;98.50;;;;;;5041405;28;20482;-68
2023/04/14 01:49:38;;;;;;;7.40;5.93;;;4.20;98.10;;;;;;5050012;28;20448;-68
2023/04/14 01:52:08;;;;;;;6.80;6.13;;;4.10;98.10;;;;;;5049689;28;21032;-68
2023/04/14 01:54:35;;;;;;;9.30;8.40;;;4.00;98.30;;;;;;5048350;28;20442;-68
2023/04/14 01:57:03;;;;;;;10.20;7.33;;;3.90;98.20;;;;;;5048852;28;20198;-68
2023/04/14 01:59:33;;;;;;;8.90;7.53;;;3.80;98.40;;;;;;5049300;28;20458;-67
2023/04/14 02:02:04;;;;;;;11.03;7.17;;;4.00;98.70;;;;;;5049310;28;20474;-67
2023/04/14 02:04:33;;;;;;;11.03;7.47;;;4.00;98.40;;;;;;5047806;28;20444;-68
2023/04/14 02:07:02;;;;;;;14.33;8.70;;;3.90;98.40;;;;;;5049447;28;20443;-69
2023/04/14 02:09:31;;;;;;;9.80;7.73;;;3.80;98.30;;;;;;5049795;28;20987;-68
2023/04/14 02:11:59;;;;;;;9.03;7.80;;;3.70;98.30;;;;;;5032283;28;20862;-67
2023/04/14 02:14:27;;;;;;;14.17;9.40;;;3.70;98.60;;;;;;5029323;28;20540;-67
2023/04/14 02:16:56;;;;;;;10.03;8.50;;;3.70;98.80;;;;;;5029361;28;20824;-67
2023/04/14 02:19:25;;;;;;;9.73;7.93;;;3.80;98.90;;;;;;5030177;28;20805;-67
2023/04/14 02:21:53;;;;;;;12.90;6.83;;;3.90;98.90;;;;;;5029572;28;20477;-67
2023/04/14 02:24:20;;;;;;;8.67;7.00;;;3.70;98.70;;;;;;5029157;28;21009;-67
2023/04/14 02:26:56;;;;;;;10.83;7.80;;;3.60;98.20;;;;;;5030763;28;20471;-66
2023/04/14 02:29:25;;;;;;;10.50;8.47;;;3.40;98.30;;;;;;5029077;28;20539;-67
2023/04/14 02:31:59;;;;;;;10.47;9.37;;;3.30;98.50;;;;;;5029612;28;20461;-66
2023/04/14 02:34:31;;;;;;;15.13;10.03;;;3.40;99.10;;;;;;5029367;28;20447;-67
2023/04/14 02:37:02;;;;;;;11.20;8.57;;;3.40;99.10;;;;;;5029573;28;20814;-67
2023/04/14 02:39:31;;;;;;;10.30;7.80;;;3.50;99.60;;;;;;5029617;28;20455;-67
2023/04/14 02:42:04;;;;;;;11.27;8.50;;;3.60;99.90;;;;;;5029140;28;20468;-67
2023/04/14 02:44:34;;;;;;;10.23;8.47;;;3.60;99.90;;;;;;5030064;28;21069;-67
2023/04/14 02:47:06;;;;;;;10.90;9.80;;;3.70;99.90;;;;;;5029454;28;20454;-68
2023/04/14 02:49:37;;;;;;;9.80;8.50;;;3.90;99.90;;;;;;5029393;28;21015;-66
2023/04/14 02:52:06;;;;;;;12.10;8.30;;;4.00;99.90;;;;;;5029180;28;21166;-67
2023/04/14 02:54:35;;;;;;;10.20;8.43;;;3.90;99.90;;;;;;5028692;28;20460;-66
2023/04/14 02:57:03;;;;;;;11.77;8.80;;;3.80;99.80;;;;;;5029533;28;20490;-67
2023/04/14 02:59:31;;;;;;;12.50;9.27;;;3.80;99.80;;;;;;5032039;28;21163;-67
2023/04/14 03:02:00;;;;;;;11.23;8.13;;;3.90;99.90;;;;;;5048790;28;20487;-69
2023/04/14 03:04:29;;;;;;;9.53;8.40;;;3.90;99.80;;;;;;5048893;28;20949;-67
2023/04/14 03:06:58;;;;;;;12.30;9.70;;;3.80;99.70;;;;;;5048709;28;20994;-68
2023/04/14 03:09:26;;;;;;;12.17;9.00;;;3.80;99.80;;;;;;5049421;28;20454;-69
2023/04/14 03:11:55;;;;;;;10.40;8.70;;;3.80;99.70;;;;;;5051642;28;20470;-68
2023/04/14 03:14:22;;;;;;;10.80;9.70;;;3.80;99.90;;;;;;5043655;28;20448;-68
2023/04/14 03:16:51;;;;;;;10.43;9.13;;;4.00;99.90;;;;;;5033093;28;20463;-69
2023/04/14 03:19:19;;;;;;;9.97;8.70;;;3.90;99.80;;;;;;5032804;28;20938;-68
2023/04/14 03:21:46;;;;;;;10.13;9.13;;;3.90;99.70;;;;;;5032883;28;20582;-67
2023/04/14 03:24:22;;;;;;;10.03;9.03;;;3.90;99.60;;;;;;5032395;28;20443;-69
2023/04/14 03:26:51;;;;;;;10.03;8.70;;;3.90;99.50;;;;;;5032879;28;20455;-68
2023/04/14 03:29:20;;;;;;;10.20;8.97;;;3.90;99.40;;;;;;5032857;28;20472;-68
2023/04/14 03:31:48;;;;;;;10.87;8.90;;;3.90;99.40;;;;;;5033274;28;20473;-67
2023/04/14 03:34:16;;;;;;;9.23;8.27;;;3.90;99.50;;;;;;5032600;28;20439;-66
2023/04/14 03:36:44;;;;;;;10.10;8.10;;;3.80;99.20;;;;;;5032608;28;20454;-67
2023/04/14 03:39:13;;;;;;;13.07;8.27;;;3.70;99.00;;;;;;5032302;28;20474;-68
2023/04/14 03:41:46;;;;;;;11.80;8.87;;;3.70;99.20;;;;;;5032333;28;20497;-67
2023/04/14 03:44:15;;;;;;;12.90;9.60;;;3.70;99.30;;;;;;5031841;28;20457;-68
2023/04/14 03:46:42;;;;;;;13.27;8.90;;;3.70;99.60;;;;;;5032386;28;20431;-67
2023/04/14 03:49:10;;;;;;;9.63;8.63;;;3.70;99.40;;;;;;5050855;28;20462;-67
2023/04/14 03:51:39;;;;;;;10.50;9.10;;;3.60;99.60;;;;;;5051952;28;20465;-68
2023/04/14 03:54:08;;;;;;;12.60;9.37;;;3.70;99.90;;;;;;5051823;28;20843;-68
2023/04/14 03:56:39;;;;;;;9.40;8.40;;;3.90;99.90;;;;;;5051073;28;20501;-68
2023/04/14 03:59:12;;;;;;;11.23;8.20;;;3.90;99.90;;;;;;5052054;28;20557;-67
2023/04/14 04:01:40;;;;;;;9.87;8.87;;;3.80;99.70;;;;;;5051793;28;20486;-69
2023/04/14 04:04:07;;;;;;;13.50;8.20;;;3.80;99.80;;;;;;5052055;28;20454;-67
2023/04/14 04:06:35;;;;;;;11.87;8.60;;;3.80;99.90;;;;;;5052080;28;20660;-68
2023/04/14 04:09:05;;;;;;;11.23;10.07;;;3.80;99.90;;;;;;5051803;28;20456;-66
2023/04/14 04:11:33;;;;;;;10.13;9.10;;;3.70;99.90;;;;;;5051584;28;20553;-67
2023/04/14 04:14:03;;;;;;;9.33;8.33;;;3.70;99.90;;;;;;5051651;28;20465;-68
2023/04/14 04:16:32;;;;;;;9.83;6.93;;;3.60;99.80;;;;;;5052103;28;20942;-67
2023/04/14 04:19:05;;;;;;;10.07;8.03;;;3.60;99.90;;;;;;5051604;28;20825;-68
2023/04/14 04:21:33;;;;;;;9.40;7.63;;;3.70;99.70;;;;;;5051133;28;20560;-66
2023/04/14 04:24:02;;;;;;;10.00;8.13;;;3.70;99.40;;;;;;5051455;28;20443;-67
2023/04/14 04:26:29;;;;;;;11.03;7.37;;;3.60;99.30;;;;;;5049980;28;20454;-69
2023/04/14 04:28:56;;;;;;;12.68;7.47;;;3.60;99.30;;;;;;5052353;28;20450;-67
2023/04/14 04:31:24;;;;;;;9.65;7.43;;;3.60;99.20;;;;;;5051464;28;20625;-67
2023/04/14 04:33:53;;;;;;;7.80;6.25;;;3.50;99.30;;;;;;5051070;28;20299;-67
2023/04/14 04:36:20;;;;;;;7.97;7.15;;;3.50;99.40;;;;;;5051355;28;20205;-67
2023/04/14 04:38:48;;;;;;;9.65;7.00;;;3.40;99.20;;;;;;5052143;28;20205;-68
2023/04/14 04:41:22;;;;;;;10.50;7.20;;;3.40;99.40;;;;;;5052148;28;20235;-68
2023/04/14 04:43:49;;;;;;;9.57;7.43;;;3.30;99.20;;;;;;5041574;28;20213;-67
2023/04/14 04:46:53;;;;;;;12.17;7.60;;;3.20;99.30;;;;;;5031203;28;20449;-66
2023/04/14 04:49:21;;;;;;;8.27;6.47;;;3.00;99.30;;;;;;4988956;28;20453;-67
2023/04/14 04:51:48;;;;;;;13.60;8.80;;;2.90;99.30;;;;;;5021556;28;20300;-65
2023/04/14 04:54:15;;;;;;;10.67;7.70;;;2.80;99.50;;;;;;5030987;28;20202;-68
2023/04/14 04:56:42;;;;;;;10.45;8.57;;;2.90;99.80;;;;;;5030891;28;20451;-66
2023/04/14 04:59:09;;;;;;;8.40;7.18;;;2.80;99.70;;;;;;5031999;28;20226;-67
2023/04/14 05:01:36;;;;;;;8.20;7.00;;;3.00;99.90;;;;;;5050291;28;20231;-66
2023/04/14 05:04:03;;;;;;;9.50;6.75;;;2.90;99.80;;;;;;5050828;28;20210;-66
2023/04/14 05:06:35;;;;;;;8.82;7.55;;;3.10;99.90;;;;;;5050992;28;20206;-67
2023/04/14 05:09:03;;;;;;;10.80;8.77;;;3.10;99.90;;;;;;5050631;28;20208;-68
2023/04/14 05:11:30;;;;;;;12.43;8.43;;;3.20;99.90;;;;;;5050841;28;20486;-67
2023/04/14 05:13:56;;;;;;;9.60;7.57;;;3.10;99.80;;;;;;5049803;28;20669;-66
2023/04/14 05:16:24;;;;;;;7.60;6.75;;;3.00;99.90;;;;;;5045858;28;20196;-67
2023/04/14 05:18:51;;;;;;;10.10;7.00;;;3.10;99.90;;;;;;5031271;28;20205;-68
2023/04/14 05:21:18;;;;;;;10.23;7.20;;;3.10;99.80;;;;;;5030744;28;20560;-67
2023/04/14 05:23:47;;;;;;;7.72;6.53;;;3.00;99.90;;;;;;5030837;28;20953;-68
2023/04/14 05:26:15;;;;;;;7.90;6.80;;;3.10;99.90;;;;;;5030537;28;20210;-67
2023/04/14 05:28:43;;;;;;;8.90;6.75;;;3.10;99.80;;;;;;5031030;28;20644;-66
2023/04/14 05:31:09;;;;;;;9.80;7.43;;;3.10;99.90;;;;;;5030996;28;20602;-67
2023/04/14 05:33:37;;;;;;;15.32;7.03;;;3.10;99.90;;;;;;5031025;28;20450;-67
2023/04/14 05:36:04;;;;;;;8.53;6.40;;;3.10;99.90;;;;;;5031066;28;20204;-67
2023/04/14 05:38:31;;;;;;;12.47;7.57;;;3.20;99.90;;;;;;5030520;28;20549;-67
2023/04/14 05:40:59;;;;;;;8.83;6.83;;;3.30;99.90;;;;;;5030540;28;20572;-68
2023/04/14 05:43:26;;;;;;;12.10;8.50;;;3.30;99.90;;;;;;5030163;28;20444;-67
2023/04/14 05:45:53;;;;;;;8.80;7.90;;;3.40;99.90;;;;;;5030227;28;20456;-67
2023/04/14 05:48:23;;;;;;;8.30;6.20;;;3.50;99.90;;;;;;5030469;28;20452;-67
2023/04/14 05:50:52;;;;;;;10.73;7.70;;;3.70;99.90;;;;;;5032229;28;20214;-68
2023/04/14 05:53:19;;;;;;;10.93;6.80;;;3.70;99.90;;;;;;5030377;28;20551;-67
2023/04/14 05:55:46;;;;;;;9.57;7.37;;;3.80;99.90;;;;;;5030651;28;20457;-67
2023/04/14 05:58:14;;;;;;;8.90;8.10;;;3.70;99.90;;;;;;5034864;28;20490;-67
2023/04/14 06:00:41;;;;;;;10.67;8.93;;;3.80;99.90;;;;;;5049755;28;20851;-68
2023/04/14 06:03:08;;;;;;;12.83;9.00;;;3.90;99.90;;;;;;5049296;28;21007;-68
2023/04/14 06:05:35;;;;;;;12.50;8.80;;;4.10;99.90;;;;;;5049998;28;20447;-68
2023/04/14 06:08:02;;;;;;;11.53;9.30;;;4.10;99.90;;;;;;5049425;28;20450;-67
2023/04/14 06:10:30;;;;;;;10.57;9.07;;;4.30;99.90;;;;;;5044373;28;20551;-67
2023/04/14 06:12:57;;;;;;;10.50;8.70;;;4.40;99.90;;;;;;5029694;28;20462;-68
2023/04/14 06:15:28;;;;;;;10.33;8.20;;;4.60;99.90;;;;;;5029596;28;21041;-68
2023/04/14 06:17:55;;;;;;;9.40;7.67;;;4.60;99.90;;;;;;5029875;28;20477;-67
2023/04/14 06:20:22;;;;;;;7.87;6.00;;;4.90;99.90;;;;;;5029183;28;20471;-68
2023/04/14 06:22:48;;;;;;;12.17;6.73;;;5.00;99.50;;;;;;5029095;28;20954;-68
2023/04/14 06:25:15;;;;;;;13.40;6.80;;;5.00;99.10;;;;;;5030016;28;20449;-68
2023/04/14 06:27:42;;;;;;;8.47;5.23;;;5.00;97.30;;;;;;5047772;28;20467;-67
2023/04/14 06:30:10;;;;;;;13.67;5.73;;;5.00;96.10;;;;;;5049681;28;20468;-67
2023/04/14 06:32:38;;;;;;;7.63;5.50;;;5.00;97.30;;;;;;5048862;28;20490;-67
2023/04/14 06:35:06;;;;;;;13.40;6.67;;;5.10;98.10;;;;;;5049434;28;20477;-68
2023/04/14 06:37:33;;;;;;;11.10;5.23;;;5.20;98.60;;;;;;5050135;28;20941;-67
2023/04/14 06:40:00;;;;;;;11.73;7.07;;;5.40;98.90;;;;;;5046699;28;20806;-67
2023/04/14 06:42:27;;;;;;;9.20;6.23;;;5.50;97.40;;;;;;5029405;28;20504;-67
2023/04/14 06:44:53;;;;;;;8.00;5.57;;;5.60;97.40;;;;;;5029423;28;20450;-67
2023/04/14 06:47:21;;;;;;;12.73;5.53;;;5.70;97.20;;;;;;5033689;28;20446;-67
2023/04/14 06:49:50;;;;;;;7.30;4.40;;;5.80;96.50;;;;;;5033470;28;20441;-67
2023/04/14 06:52:16;;;;;;;8.23;3.97;;;5.90;93.90;;;;;;5033292;28;20450;-67
2023/04/14 06:54:43;;;;;;;13.20;4.93;;;6.00;93.20;;;;;;5033204;28;20452;-67
2023/04/14 06:57:10;;;;;;;7.40;3.73;;;6.10;94.00;;;;;;5041018;28;20458;-67
2023/04/14 06:59:37;;;;;;;10.07;4.10;;;6.20;91.70;;;;;;5053368;28;20462;-67
2023/04/14 07:02:04;;;;;;;3.70;3.40;;;6.40;93.40;;;;;;5053340;28;20488;-67
2023/04/14 07:04:31;;;;;;;11.73;2.93;;;6.40;90.80;;;;;;5052655;28;20444;-67
2023/04/14 07:07:00;;;;;;;7.60;3.10;;;6.40;89.40;;;;;;5053686;28;20514;-67
2023/04/14 07:09:28;;;;;;;7.50;3.50;;;6.30;89.30;;;;;;5053356;28;20439;-67
2023/04/14 07:11:55;;;;;;;7.80;4.57;;;6.20;92.10;;;;;;5053401;28;20867;-67
2023/04/14 07:14:22;;;;;;;5.97;4.00;;;6.00;93.60;;;;;;5051535;28;20448;-67
2023/04/14 07:16:50;;;;;;;13.43;4.93;;;6.00;93.40;;;;;;5053232;28;20455;-67
2023/04/14 07:19:17;;;;;;;6.90;4.83;;;6.10;93.20;;;;;;5053755;28;20552;-68
2023/04/14 07:21:44;;;;;;;8.20;4.70;;;6.20;93.10;;;;;;5053293;28;20494;-66
2023/04/14 07:24:12;;;;;;;7.10;4.73;;;6.30;93.20;;;;;;5053092;28;20475;-68
2023/04/14 07:26:39;;;;;;;10.00;4.57;;;6.40;94.20;;;;;;5053114;28;20539;-67
2023/04/14 07:29:06;;;;;;;6.37;4.23;;;6.50;93.00;;;;;;5053244;28;20443;-68
2023/04/14 07:31:34;;;;;;;7.80;5.57;;;6.70;93.10;;;;;;5036267;28;20472;-67
2023/04/14 07:34:01;;;;;;;6.57;3.55;;;6.70;93.30;;;;;;5032312;28;20875;-67
2023/04/14 07:36:28;;;;;;;5.80;3.90;;;7.00;90.90;;;;;;5032796;28;20200;-67
2023/04/14 07:38:55;;;;;;;12.13;4.80;;;7.20;91.80;;;;;;5032475;28;20450;-67
2023/04/14 07:41:25;;;;;;;5.70;3.93;;;7.40;90.40;;;;;;5032904;28;21016;-69
2023/04/14 07:43:54;;;;;;;5.07;1.90;;;7.70;89.00;;;;;;5033339;28;20890;-67
2023/04/14 07:46:21;;;;;;;2.73;1.63;;;8.00;81.00;;;;;;5035737;28;20541;-68
2023/04/14 07:48:48;;;;;;;11.10;3.33;;;8.10;78.60;;;;;;5052845;28;20459;-68
2023/04/14 07:51:15;;;;;;;7.67;2.53;;;8.20;76.10;;;;;;5052943;28;20478;-69
2023/04/14 07:53:43;;;;;;;5.47;2.63;;;8.30;77.30;;;;;;5052368;28;20450;-70
2023/04/14 07:56:11;;;;;;;4.60;2.43;;;8.40;78.90;;;;;;5047553;28;20457;-69
2023/04/14 07:58:39;;;;;;;8.30;2.20;;;8.50;75.20;;;;;;5032543;28;20448;-69
2023/04/14 08:01:06;;;;;;;4.37;1.90;;;8.70;76.20;;;;;;5033056;28;20476;-69
2023/04/14 08:03:35;;;;;;;4.97;2.63;;;8.90;75.30;;;;;;5032929;28;20491;-70
2023/04/14 08:06:01;;;;;;;5.23;2.07;;;9.00;73.30;;;;;;5032281;28;20458;-70
2023/04/14 08:08:29;;;;;;;4.70;2.23;;;9.00;72.00;;;;;;5032041;28;20454;-70
2023/04/14 08:10:55;;;;;;;5.87;2.13;;;9.20;75.70;;;;;;5039638;28;20468;-72
2023/04/14 08:13:22;;;;;;;3.33;2.00;;;9.30;73.90;;;;;;5051508;28;20447;-69
2023/04/14 08:15:50;;;;;;;4.47;1.90;;;9.50;71.00;;;;;;5051579;28;20428;-69
2023/04/14 08:18:18;;;;;;;3.50;1.53;;;9.50;69.30;;;;;;5051954;28;20447;-69
2023/04/14 08:20:44;;;;;;;5.13;2.10;;;9.70;68.40;;;;;;5051674;28;20464;-70
2023/04/14 08:23:11;;;;;;;6.43;2.30;;;9.70;67.10;;;;;;5051065;28;21029;-68
2023/04/14 08:25:38;;;;;;;6.97;2.47;;;9.70;68.40;;;;;;5051522;28;20448;-72
2023/04/14 08:28:05;;;;;;;4.30;2.20;;;9.80;68.20;;;;;;5049704;28;20456;-68
2023/04/14 08:30:32;;;;;;;5.50;1.67;;;9.80;65.10;;;;;;5051688;28;20463;-68
2023/04/14 08:33:00;;;;;;;8.57;2.10;;;9.90;67.70;;;;;;5051306;28;20451;-70
2023/04/14 08:35:27;;;;;;;7.63;2.97;;;10.00;66.70;;;;;;5051459;28;20448;-69
2023/04/14 08:37:54;;;;;;;6.53;2.40;;;10.00;64.90;;;;;;5051463;28;20449;-67
2023/04/14 08:40:22;;;;;;;8.10;2.50;;;10.10;65.10;;;;;;5049926;28;20471;-66
2023/04/14 08:42:49;;;;;;;7.90;3.60;;;10.30;65.60;;;;;;5050440;28;20480;-69
2023/04/14 08:45:18;;;;;;;7.47;2.50;;;10.50;64.80;;;;;;5040358;28;20504;-68
2023/04/14 08:47:47;;;;;;;5.80;2.13;;;10.60;64.30;;;;;;5051055;28;20534;-68
2023/04/14 08:50:18;;;;;;;4.43;2.13;;;10.70;65.00;;;;;;5051839;28;20469;-69
2023/04/14 08:52:47;;;;;;;6.03;2.30;;;10.70;61.30;;;;;;5048545;28;20473;-69
2023/04/14 08:55:15;;;;;;;7.20;2.43;;;10.70;60.70;;;;;;5048580;28;21022;-69
2023/04/14 08:57:45;;;;;;;8.70;2.50;;;10.80;59.80;;;;;;5048372;28;20460;-68
2023/04/14 09:00:14;;;;;;;6.50;2.50;;;10.90;62.10;;;;;;5048962;28;20497;-71
2023/04/14 09:02:42;;;;;;;6.70;2.10;;;11.00;60.80;;;;;;5050114;28;20611;-69
2023/04/14 09:05:09;;;;;;;6.30;2.53;;;11.20;59.70;;;;;;5039443;28;20487;-69
2023/04/14 09:07:38;;;;;;;5.47;2.30;;;11.20;57.60;;;;;;5039170;28;20481;-70
2023/04/14 09:10:07;;;;;;;7.77;2.00;;;11.10;59.50;;;;;;5048404;28;20453;-71
2023/04/14 09:12:35;;;;;;;3.57;1.70;;;11.20;59.50;;;;;;5049200;28;20839;-68
2023/04/14 09:15:02;;;;;;;6.07;2.50;;;11.30;59.10;;;;;;5049353;28;20509;-68
2023/04/14 09:17:30;;;;;;;2.97;1.70;;;11.30;56.20;;;;;;5038005;28;21007;-69
2023/04/14 09:19:57;;;;;;;3.97;2.23;;;11.40;57.60;;;;;;5048194;28;20477;-70
2023/04/14 09:22:24;;;;;;;9.53;2.10;;;11.50;57.40;;;;;;5048861;28;20479;-69
2023/04/14 09:24:52;;;;;;;5.40;2.00;;;11.60;57.80;;;;;;5047546;28;20486;-71
2023/04/14 09:27:19;;;;;;;3.70;2.93;;;11.90;56.20;;;;;;5048615;28;20459;-68
2023/04/14 09:29:48;;;;;;;4.23;1.77;;;12.20;54.50;;;;;;5048970;28;20447;-67
2023/04/14 09:32:15;;;;;;;12.33;3.03;;;12.80;53.70;;;;;;5048762;28;20474;-68
2023/04/14 09:34:51;;;;;;;6.03;2.30;;;13.20;53.80;;;;;;5031190;28;20947;-68
2023/04/14 09:37:18;;;;;;;5.63;2.20;;;13.30;54.00;;;;;;5030601;28;20479;-69
2023/04/14 09:39:50;;;;;;;6.00;2.23;;;13.50;55.10;;;;;;5030777;28;20461;-69
2023/04/14 09:42:20;;;;;;;5.57;3.37;;;13.80;50.70;;;;;;5047780;28;20494;-71
2023/04/14 09:44:53;;;;;;;5.97;2.47;;;14.10;49.60;;;;;;5049850;28;20451;-67
2023/04/14 09:47:21;;;;;;;6.37;2.03;;;14.10;49.70;;;;;;5051041;28;20454;-73
2023/04/14 09:49:56;;;;;;;4.13;2.20;;;14.10;49.50;;;;;;5043603;28;20554;-70
2023/04/14 09:52:35;;;;;;;12.03;2.17;;;13.90;50.00;;;;;;5030094;28;20451;-69
2023/04/14 09:55:05;;;;;;;4.83;1.90;;;14.10;50.40;;;;;;5030029;28;20542;-69
2023/04/14 09:57:36;;;;;;;6.43;2.70;;;14.50;48.70;;;;;;5045509;28;20866;-69
2023/04/14 10:00:04;;;;;;;3.47;1.80;;;14.30;49.50;;;;;;5049655;28;20459;-68
2023/04/14 10:02:46;;;;;;;6.57;2.67;;;14.20;49.20;;;;;;5049331;28;20483;-69
2023/04/14 10:05:13;;;;;;;3.40;1.80;;;14.40;49.20;;;;;;5049908;28;20443;-70
2023/04/14 10:07:41;;;;;;;7.70;2.50;;;14.90;51.70;;;;;;5049600;28;20447;-71
2023/04/14 10:10:11;;;;;;;5.37;2.10;;;15.90;49.30;;;;;;5040922;28;20448;-68
2023/04/14 10:12:41;;;;;;;5.40;2.10;;;16.50;46.30;;;;;;5029619;28;20492;-70
2023/04/14 10:15:10;;;;;;;6.67;2.63;;;16.80;46.70;;;;;;5029672;28;20510;-69
2023/04/14 10:17:37;;;;;;;6.13;2.40;;;16.90;44.70;;;;;;5028215;28;20973;-68
2023/04/14 10:20:06;;;;;;;5.17;2.20;;;16.40;43.20;;;;;;5028838;28;21141;-70
2023/04/14 10:22:33;;;;;;;3.53;1.60;;;15.60;43.10;;;;;;5029743;28;20473;-70
2023/04/14 10:25:00;;;;;;;6.53;2.10;;;14.90;44.00;;;;;;5043010;28;20454;-70
2023/04/14 10:27:29;;;;;;;6.00;2.90;;;14.20;46.50;;;;;;5049451;28;21061;-69
2023/04/14 10:29:58;;;;;;;10.33;2.70;;;14.50;47.10;;;;;;5049815;28;20471;-71
2023/04/14 10:32:28;;;;;;;5.67;2.10;;;15.10;46.10;;;;;;5048933;28;20965;-70
2023/04/14 10:35:00;;;;;;;3.73;2.13;;;15.70;45.90;;;;;;5049319;28;20462;-70
2023/04/14 10:37:27;;;;;;;3.40;1.80;;;15.30;45.40;;;;;;5049540;28;20444;-71
2023/04/14 10:39:58;;;;;;;4.50;2.00;;;14.50;45.60;;;;;;5049520;28;20453;-69
2023/04/14 10:42:25;;;;;;;6.30;1.97;;;13.70;48.90;;;;;;5047274;28;20554;-70
2023/04/14 10:45:05;;;;;;;5.57;2.40;;;13.40;49.10;;;;;;5049780;28;20540;-70
2023/04/14 10:47:34;;;;;;;6.07;1.97;;;13.90;47.40;;;;;;5050075;28;20954;-70
2023/04/14 10:50:11;;;;;;;5.97;2.20;;;14.40;47.00;;;;;;5049743;28;20450;-71
2023/04/14 10:52:38;;;;;;;4.53;1.83;;;15.10;45.80;;;;;;5049355;28;20445;-70
2023/04/14 10:55:10;;;;;;;4.57;2.30;;;15.40;44.10;;;;;;5046953;28;20454;-71
2023/04/14 10:57:40;;;;;;;9.30;2.70;;;16.50;43.20;;;;;;5029151;28;20545;-71
2023/04/14 11:00:23;;;;;;;5.70;2.07;;;17.00;42.40;;;;;;5041992;28;20469;-70
2023/04/14 11:02:56;;;;;;;7.37;2.30;;;17.20;43.00;;;;;;5045644;28;20484;-72
2023/04/14 11:05:23;;;;;;;3.80;1.83;;;17.10;42.00;;;;;;5035692;28;20455;-71
2023/04/14 11:07:56;;;;;;;7.77;2.60;;;17.50;43.90;;;;;;5048142;28;20447;-70
2023/04/14 11:10:27;;;;;;;5.10;2.50;;;18.40;42.30;;;;;;5036745;28;20472;-72
2023/04/14 11:12:57;;;;;;;9.90;2.30;;;18.20;39.80;;;;;;5027845;28;20453;-69
2023/04/14 11:15:46;;;;;;;8.87;2.73;;;17.40;40.50;;;;;;5027044;28;20449;-70
2023/04/14 11:18:15;;;;;;;5.50;1.90;;;17.40;40.80;;;;;;5043331;28;21179;-69
2023/04/14 11:20:42;;;;;;;3.33;1.83;;;17.10;39.90;;;;;;5041121;28;20546;-70
2023/04/14 11:23:11;;;;;;;3.47;2.07;;;17.00;40.00;;;;;;5045915;28;20476;-70
2023/04/14 11:25:39;;;;;;;5.97;1.90;;;17.30;39.80;;;;;;5042037;28;20490;-69
2023/04/14 11:28:06;;;;;;;7.83;3.27;;;17.20;38.40;;;;;;5044116;28;20452;-69
2023/04/14 11:30:34;;;;;;;5.43;1.70;;;17.60;38.90;;;;;;5043331;28;20471;-69
2023/04/14 11:33:01;;;;;;;3.40;1.80;;;17.70;36.60;;;;;;5049678;28;20437;-69
2023/04/14 11:35:30;;;;;;;4.63;1.90;;;18.00;37.60;;;;;;5050631;28;20445;-69
2023/04/14 11:37:57;;;;;;;8.37;2.00;;;18.80;36.90;;;;;;5050079;28;20965;-69
2023/04/14 11:40:26;;;;;;;3.17;1.70;;;20.00;35.40;;;;;;5049966;28;20493;-68
2023/04/14 11:42:55;;;;;;;4.63;1.77;;;20.40;33.90;;;;;;5049712;28;20541;-70
2023/04/14 11:45:22;;;;;;;5.10;2.10;;;20.40;34.70;;;;;;5049566;28;20440;-70
2023/04/14 11:48:00;;;;;;;6.90;2.70;;;19.90;36.30;;;;;;5049006;28;20455;-68
2023/04/14 11:50:30;;;;;;;6.40;1.63;;;19.30;34.40;;;;;;5030503;28;20472;-68
2023/04/14 11:52:58;;;;;;;5.63;1.80;;;18.60;35.70;;;;;;5047812;28;20432;-70
2023/04/14 11:55:25;;;;;;;4.00;2.07;;;18.70;36.30;;;;;;5046035;28;20457;-69
2023/04/14 11:57:52;;;;;;;4.13;2.17;;;19.30;35.60;;;;;;5045346;28;20455;-69
2023/04/14 12:00:19;;;;;;;4.50;2.00;;;18.90;35.30;;;;;;5046841;28;21213;-67
2023/04/14 12:02:46;;;;;;;5.33;1.93;;;19.30;35.20;;;;;;5049630;28;20467;-68
2023/04/14 12:05:21;;;;;;;3.77;1.60;;;18.90;33.30;;;;;;5049450;28;20447;-68
2023/04/14 12:07:48;;;;;;;4.77;2.00;;;18.20;35.20;;;;;;5047885;28;20533;-68
2023/04/14 12:10:15;;;;;;;5.37;2.03;;;17.50;36.00;;;;;;5048712;28;20472;-69
2023/04/14 12:12:42;;;;;;;4.97;1.50;;;17.30;37.40;;;;;;5048605;28;20991;-69
2023/04/14 12:15:10;;;;;;;5.23;1.47;;;18.60;36.50;;;;;;5049121;28;20459;-67
2023/04/14 12:17:37;;;;;;;3.00;1.60;;;19.70;32.90;;;;;;5047612;28;21017;-68
2023/04/14 12:20:05;;;;;;;5.20;1.50;;;20.70;34.20;;;;;;5049136;28;20524;-68
2023/04/14 12:22:33;;;;;;;4.20;1.60;;;22.30;30.90;;;;;;5049155;28;20514;-67
2023/04/14 12:25:09;;;;;;;2.83;1.30;;;22.70;28.50;;;;;;5046339;28;20440;-67
2023/04/14 12:27:36;;;;;;;2.70;1.30;;;22.40;26.70;;;;;;5049466;28;20436;-68
2023/04/14 12:30:04;;;;;;;2.07;1.43;;;21.90;27.80;;;;;;5048955;28;20436;-68
2023/04/14 12:32:38;;;;;;;2.97;1.30;;;20.60;28.50;;;;;;5048820;28;20978;-68
2023/04/14 12:35:05;;;;;;;3.00;1.50;;;20.40;29.00;;;;;;5049309;28;21011;-68
2023/04/14 12:37:34;;;;;;;4.30;1.87;;;20.90;29.90;;;;;;5049108;28;20436;-68
2023/04/14 12:40:05;;;;;;;5.90;2.33;;;21.40;30.90;;;;;;5047537;28;20440;-69
2023/04/14 12:42:44;;;;;;;6.40;2.23;;;21.60;31.50;;;;;;5047969;28;20444;-68
2023/04/14 12:45:11;;;;;;;3.70;2.03;;;20.90;31.90;;;;;;5049204;28;20444;-67
2023/04/14 12:47:38;;;;;;;7.80;2.40;;;20.30;32.10;;;;;;5049491;28;20506;-68
2023/04/14 12:50:23;;;;;;;4.47;1.97;;;20.00;32.70;;;;;;5049040;28;20448;-68
2023/04/14 12:52:53;;;;;;;5.23;2.00;;;19.80;31.60;;;;;;5037702;28;20455;-69
2023/04/14 12:55:21;;;;;;;3.70;2.23;;;20.30;32.50;;;;;;5045182;28;20452;-70
2023/04/14 12:57:47;;;;;;;3.37;1.70;;;21.10;30.00;;;;;;5049365;28;20811;-68
2023/04/14 13:00:15;;;;;;;1.83;1.07;;;20.50;27.00;;;;;;5049507;28;20479;-70